Time;durP1;ratioP1;P1;durP2;ratioP2;P2;SDS_P1;SDS_P2;PMS_P1;PMS_P2;Temp;Humidity;BMP_temperature;BMP_pressure;BME280_temperature;BME280_humidity;BME280_pressure;Samples;Min_cycle;Max_cycle;Signal;HPM_P1;HPM_P2
2024/01/05 00:01:25;;;;;;;0.30;0.20;;;9.20;99.90;;;;;;5071657;28;20219;-79
2024/01/05 00:03:51;;;;;;;0.30;0.20;;;9.20;99.90;;;;;;5071122;28;20205;-79
2024/01/05 00:06:17;;;;;;;0.30;0.20;;;9.20;99.90;;;;;;5069316;28;20393;-79
2024/01/05 00:08:42;;;;;;;0.30;0.20;;;9.20;99.90;;;;;;5069952;28;20697;-79
2024/01/05 00:11:08;;;;;;;0.30;0.20;;;9.20;99.90;;;;;;5071664;28;20173;-78
2024/01/05 00:13:34;;;;;;;1.83;1.73;;;9.20;99.90;;;;;;5071438;28;20197;-79
2024/01/05 00:15:59;;;;;;;0.30;0.20;;;9.20;99.90;;;;;;5069932;28;20429;-79
2024/01/05 00:18:25;;;;;;;0.30;0.30;;;9.10;99.90;;;;;;5068988;28;20200;-79
2024/01/05 00:20:54;;;;;;;0.30;0.20;;;9.00;99.90;;;;;;5071100;28;20216;-79
2024/01/05 00:23:20;;;;;;;0.30;0.20;;;8.90;99.90;;;;;;5069749;28;20299;-79
2024/01/05 00:25:45;;;;;;;0.30;0.20;;;8.80;99.90;;;;;;5069746;28;20185;-79
2024/01/05 00:28:11;;;;;;;0.30;0.20;;;8.70;99.90;;;;;;5069846;28;20468;-79
2024/01/05 00:30:37;;;;;;;0.30;0.20;;;8.70;99.90;;;;;;5071130;28;20539;-79
2024/01/05 00:33:03;;;;;;;0.30;0.20;;;8.60;99.90;;;;;;5069336;28;20192;-79
2024/01/05 00:35:28;;;;;;;0.30;0.20;;;8.50;99.90;;;;;;5069776;28;20196;-79
2024/01/05 00:37:54;;;;;;;0.30;0.20;;;8.50;99.90;;;;;;5069114;28;20598;-79
2024/01/05 00:40:20;;;;;;;0.30;0.20;;;8.40;99.90;;;;;;5069596;28;20241;-79
2024/01/05 00:42:46;;;;;;;0.30;0.20;;;8.30;99.90;;;;;;5069045;28;20197;-78
2024/01/05 00:45:11;;;;;;;0.30;0.20;;;8.30;99.90;;;;;;5071028;28;20402;-79
2024/01/05 00:47:37;;;;;;;0.30;0.20;;;8.20;99.90;;;;;;5069110;28;20190;-79
2024/01/05 00:50:03;;;;;;;0.30;0.20;;;8.10;99.90;;;;;;5069384;28;20177;-79
2024/01/05 00:52:29;;;;;;;0.30;0.20;;;8.10;99.90;;;;;;5070388;28;20169;-78
2024/01/05 00:54:55;;;;;;;0.30;0.20;;;8.00;99.90;;;;;;5070248;28;20185;-79
2024/01/05 00:57:20;;;;;;;0.30;0.20;;;8.00;99.90;;;;;;5070906;28;20173;-79
2024/01/05 00:59:46;;;;;;;0.40;0.20;;;7.90;99.90;;;;;;5068816;28;20223;-79
2024/01/05 01:02:12;;;;;;;0.30;0.20;;;7.90;99.90;;;;;;5070690;28;20799;-79
2024/01/05 01:04:38;;;;;;;0.30;0.20;;;7.80;99.90;;;;;;5069833;28;20705;-79
2024/01/05 01:07:03;;;;;;;0.30;0.20;;;7.90;99.90;;;;;;5068865;28;20238;-78
2024/01/05 01:09:29;;;;;;;2.10;2.00;;;7.90;99.90;;;;;;5070186;28;20258;-80
2024/01/05 01:11:55;;;;;;;0.40;0.40;;;7.90;99.90;;;;;;5070458;28;20421;-79
2024/01/05 01:14:21;;;;;;;0.30;0.20;;;7.80;99.90;;;;;;5068684;28;20201;-79
2024/01/05 01:16:46;;;;;;;0.30;0.20;;;7.80;99.90;;;;;;5068592;28;20636;-79
2024/01/05 01:19:12;;;;;;;0.30;0.20;;;7.80;99.90;;;;;;5069310;28;20215;-78
2024/01/05 01:21:38;;;;;;;0.30;0.20;;;7.70;99.90;;;;;;5070184;28;20321;-79
2024/01/05 01:24:04;;;;;;;0.30;0.20;;;7.80;99.90;;;;;;5069801;28;20309;-79
2024/01/05 01:26:30;;;;;;;0.85;0.85;;;7.70;99.90;;;;;;5068720;28;20256;-79
2024/01/05 01:28:55;;;;;;;0.30;0.20;;;7.70;99.90;;;;;;5068343;28;20567;-79
2024/01/05 01:31:21;;;;;;;0.30;0.20;;;7.70;99.90;;;;;;5069827;28;20578;-79
2024/01/05 01:33:47;;;;;;;0.30;0.20;;;7.60;99.90;;;;;;5068502;28;20197;-79
2024/01/05 01:36:12;;;;;;;0.57;0.57;;;7.70;99.90;;;;;;5069964;28;20191;-79
2024/01/05 01:38:38;;;;;;;0.30;0.20;;;7.70;99.90;;;;;;5068436;28;20197;-79
2024/01/05 01:41:04;;;;;;;0.30;0.20;;;7.70;99.90;;;;;;5069743;28;20221;-79
2024/01/05 01:43:30;;;;;;;0.30;0.20;;;7.70;99.90;;;;;;5068339;28;20203;-79
2024/01/05 01:45:59;;;;;;;0.30;0.20;;;7.70;99.90;;;;;;5067881;28;20179;-79
2024/01/05 01:48:26;;;;;;;0.30;0.20;;;7.60;99.90;;;;;;5068300;28;20437;-79
2024/01/05 01:50:54;;;;;;;0.30;0.22;;;7.60;99.90;;;;;;5068633;28;20234;-79
2024/01/05 01:53:21;;;;;;;0.30;0.20;;;7.50;99.90;;;;;;5069918;28;20216;-79
2024/01/05 01:55:49;;;;;;;0.30;0.20;;;7.40;99.90;;;;;;5068209;28;20192;-79
2024/01/05 01:58:16;;;;;;;0.30;0.20;;;7.40;99.90;;;;;;5069448;28;20189;-79
2024/01/05 02:00:44;;;;;;;0.30;0.20;;;7.30;99.90;;;;;;5068122;28;20224;-79
2024/01/05 02:03:11;;;;;;;0.30;0.20;;;7.30;99.90;;;;;;5068350;28;20297;-79
2024/01/05 02:05:37;;;;;;;0.30;0.20;;;7.30;99.90;;;;;;5069550;28;20584;-79
2024/01/05 02:08:03;;;;;;;0.30;0.20;;;7.30;99.90;;;;;;5069321;28;20197;-79
2024/01/05 02:10:29;;;;;;;0.30;0.20;;;7.20;99.90;;;;;;5068496;28;20417;-79
2024/01/05 02:12:56;;;;;;;0.30;0.20;;;7.20;99.90;;;;;;5067826;28;20215;-79
2024/01/05 02:15:22;;;;;;;0.30;0.20;;;7.20;99.90;;;;;;5069360;28;20513;-79
2024/01/05 02:17:48;;;;;;;0.30;0.20;;;7.10;99.90;;;;;;5070387;28;20208;-79
2024/01/05 02:20:14;;;;;;;0.30;0.20;;;7.10;99.90;;;;;;5071641;28;20224;-79
2024/01/05 02:22:49;;;;;;;0.30;0.20;;;7.00;99.90;;;;;;5073160;28;20251;-79
2024/01/05 02:25:14;;;;;;;0.30;0.20;;;7.00;99.90;;;;;;5073539;28;20171;-79
2024/01/05 02:27:40;;;;;;;0.30;0.20;;;7.00;99.90;;;;;;5071760;28;20173;-79
2024/01/05 02:30:07;;;;;;;0.30;0.20;;;7.00;99.90;;;;;;5073475;28;20176;-79
2024/01/05 02:32:32;;;;;;;0.30;0.20;;;6.90;99.90;;;;;;5072740;28;20811;-79
2024/01/05 02:34:58;;;;;;;0.30;0.20;;;6.90;99.90;;;;;;5071732;28;20195;-79
2024/01/05 02:37:24;;;;;;;0.30;0.20;;;6.80;99.90;;;;;;5073100;28;20181;-79
2024/01/05 02:39:50;;;;;;;0.30;0.20;;;6.70;99.90;;;;;;5071704;28;20621;-79
2024/01/05 02:42:15;;;;;;;0.30;0.20;;;6.70;99.90;;;;;;5073474;28;20238;-79
2024/01/05 02:44:41;;;;;;;0.30;0.20;;;6.60;99.90;;;;;;5072949;28;20203;-78
2024/01/05 02:47:07;;;;;;;0.30;0.20;;;6.60;99.90;;;;;;5073259;28;20184;-79
2024/01/05 02:49:32;;;;;;;0.30;0.20;;;6.50;99.90;;;;;;5072931;28;20204;-78
2024/01/05 02:51:58;;;;;;;0.30;0.20;;;6.50;99.90;;;;;;5071542;28;20189;-78
2024/01/05 02:54:24;;;;;;;0.30;0.20;;;6.40;99.90;;;;;;5071421;28;20692;-79
2024/01/05 02:56:50;;;;;;;0.30;0.20;;;6.30;99.90;;;;;;5071392;28;20265;-79
2024/01/05 02:59:15;;;;;;;0.30;0.20;;;6.30;99.90;;;;;;5073154;28;20224;-79
2024/01/05 03:01:41;;;;;;;0.30;0.20;;;6.20;99.90;;;;;;5071422;28;20448;-79
2024/01/05 03:04:07;;;;;;;0.30;0.20;;;6.20;99.90;;;;;;5074929;28;20602;-79
2024/01/05 03:06:33;;;;;;;0.30;0.30;;;6.20;99.90;;;;;;5072740;28;20240;-79
2024/01/05 03:08:59;;;;;;;0.30;0.20;;;6.20;99.90;;;;;;5071946;28;20189;-79
2024/01/05 03:11:25;;;;;;;0.30;0.20;;;6.20;99.90;;;;;;5072704;28;20630;-79
2024/01/05 03:13:51;;;;;;;0.40;0.40;;;6.10;99.90;;;;;;5071087;28;20316;-79
2024/01/05 03:16:16;;;;;;;0.30;0.20;;;6.10;99.90;;;;;;5071168;28;21053;-79
2024/01/05 03:18:43;;;;;;;0.30;0.20;;;6.10;99.90;;;;;;5071890;28;20204;-79
2024/01/05 03:21:09;;;;;;;0.30;0.20;;;6.10;99.90;;;;;;5070481;28;20452;-78
2024/01/05 03:23:35;;;;;;;0.30;0.20;;;6.10;99.90;;;;;;5072050;28;20215;-79
2024/01/05 03:26:00;;;;;;;0.30;0.20;;;6.00;99.90;;;;;;5070640;28;20185;-79
2024/01/05 03:28:26;;;;;;;0.30;0.20;;;5.90;99.90;;;;;;5071756;28;20197;-79
2024/01/05 03:30:52;;;;;;;0.30;0.20;;;5.90;99.90;;;;;;5072022;28;20260;-79
2024/01/05 03:33:20;;;;;;;0.30;0.20;;;5.90;99.90;;;;;;5071956;28;20607;-78
2024/01/05 03:35:46;;;;;;;0.30;0.20;;;5.90;99.90;;;;;;5072422;28;20488;-79
2024/01/05 03:38:11;;;;;;;0.30;0.20;;;5.80;99.90;;;;;;5070464;28;20614;-78
2024/01/05 03:40:37;;;;;;;0.30;0.20;;;5.90;99.90;;;;;;5072333;28;20351;-78
2024/01/05 03:43:03;;;;;;;0.30;0.20;;;5.90;99.90;;;;;;5070313;28;20696;-78
2024/01/05 03:45:29;;;;;;;0.30;0.20;;;5.90;99.90;;;;;;5070693;28;20192;-78
2024/01/05 03:47:56;;;;;;;0.30;0.20;;;5.90;99.90;;;;;;5072104;28;20185;-78
2024/01/05 03:50:21;;;;;;;0.30;0.20;;;5.90;99.90;;;;;;5070632;28;20419;-78
2024/01/05 03:52:47;;;;;;;0.30;0.20;;;5.90;99.90;;;;;;5070091;28;20690;-78
2024/01/05 03:55:13;;;;;;;0.30;0.30;;;5.70;99.90;;;;;;5070623;28;20621;-78
2024/01/05 03:57:38;;;;;;;0.30;0.20;;;5.60;99.90;;;;;;5070157;28;20834;-78
2024/01/05 04:00:07;;;;;;;0.30;0.20;;;5.50;99.90;;;;;;5071637;28;20208;-78
2024/01/05 04:02:33;;;;;;;0.30;0.20;;;5.50;99.90;;;;;;5071763;28;20223;-78
2024/01/05 04:04:59;;;;;;;0.30;0.20;;;5.50;99.90;;;;;;5071257;28;20648;-78
2024/01/05 04:07:25;;;;;;;0.33;0.30;;;5.60;99.90;;;;;;5071941;28;20475;-78
2024/01/05 04:09:51;;;;;;;0.30;0.20;;;5.60;99.90;;;;;;5071340;28;20178;-78
2024/01/05 04:12:17;;;;;;;0.30;0.20;;;5.70;99.90;;;;;;5071373;28;20223;-78
2024/01/05 04:14:44;;;;;;;0.30;0.20;;;5.70;99.90;;;;;;5069719;28;20209;-78
2024/01/05 04:17:11;;;;;;;0.30;0.20;;;5.80;99.90;;;;;;5069050;28;20181;-78
2024/01/05 04:19:37;;;;;;;0.30;0.30;;;5.80;99.90;;;;;;5070513;28;20256;-78
2024/01/05 04:22:05;;;;;;;0.30;0.20;;;5.90;99.90;;;;;;5070922;28;20174;-78
2024/01/05 04:24:31;;;;;;;0.30;0.20;;;5.90;99.90;;;;;;5070928;28;20674;-78
2024/01/05 04:26:57;;;;;;;0.30;0.20;;;5.90;99.90;;;;;;5069640;28;20189;-78
2024/01/05 04:29:22;;;;;;;0.30;0.20;;;5.90;99.90;;;;;;5069770;28;20685;-78
2024/01/05 04:31:48;;;;;;;0.30;0.20;;;5.90;99.90;;;;;;5069649;28;20228;-78
2024/01/05 04:34:14;;;;;;;0.30;0.20;;;5.90;99.90;;;;;;5071026;28;20535;-78
2024/01/05 04:36:40;;;;;;;0.30;0.20;;;6.00;99.90;;;;;;5070964;28;20181;-78
2024/01/05 04:39:05;;;;;;;0.30;0.20;;;6.00;99.90;;;;;;5069757;28;20213;-78
2024/01/05 04:41:31;;;;;;;0.30;0.20;;;6.10;99.90;;;;;;5071027;28;20530;-78
2024/01/05 04:43:57;;;;;;;0.30;0.20;;;6.10;99.90;;;;;;5070357;28;20420;-78
2024/01/05 04:46:23;;;;;;;0.30;0.20;;;6.10;99.90;;;;;;5070817;28;20195;-78
2024/01/05 04:48:49;;;;;;;0.30;0.20;;;6.20;99.90;;;;;;5070561;28;20425;-78
2024/01/05 04:51:15;;;;;;;0.30;0.20;;;6.20;99.90;;;;;;5069398;28;20252;-78
2024/01/05 04:53:40;;;;;;;0.30;0.20;;;6.20;99.90;;;;;;5070430;28;20229;-79
2024/01/05 04:56:07;;;;;;;0.30;0.20;;;6.20;99.90;;;;;;5069020;28;20782;-78
2024/01/05 04:58:32;;;;;;;0.30;0.20;;;6.20;99.90;;;;;;5070452;28;20185;-78
2024/01/05 05:00:58;;;;;;;0.30;0.20;;;6.10;99.90;;;;;;5068875;28;20224;-78
2024/01/05 05:03:26;;;;;;;0.30;0.20;;;6.10;99.90;;;;;;5069050;28;20225;-78
2024/01/05 05:05:52;;;;;;;0.30;0.20;;;6.10;99.90;;;;;;5070111;28;20481;-78
2024/01/05 05:08:17;;;;;;;0.30;0.20;;;6.10;99.90;;;;;;5070081;28;20584;-78
2024/01/05 05:10:43;;;;;;;0.30;0.20;;;6.10;99.90;;;;;;5067905;28;20269;-80
2024/01/05 05:13:12;;;;;;;0.30;0.20;;;6.10;99.90;;;;;;5069732;28;20591;-78
2024/01/05 05:15:38;;;;;;;0.30;0.20;;;6.20;99.90;;;;;;5068586;28;20188;-78
2024/01/05 05:18:04;;;;;;;0.30;0.20;;;6.30;99.90;;;;;;5067384;28;20193;-78
2024/01/05 05:20:29;;;;;;;0.30;0.20;;;6.30;99.90;;;;;;5069130;28;20527;-78
2024/01/05 05:22:55;;;;;;;0.30;0.20;;;6.30;99.90;;;;;;5069620;28;20189;-78
2024/01/05 05:25:22;;;;;;;0.40;0.37;;;6.30;99.90;;;;;;5068449;28;20638;-78
2024/01/05 05:27:48;;;;;;;0.30;0.20;;;6.30;99.90;;;;;;5068057;28;20204;-78
2024/01/05 05:30:13;;;;;;;0.30;0.20;;;6.30;99.90;;;;;;5077485;28;20659;-78
2024/01/05 05:32:39;;;;;;;0.30;0.20;;;6.30;99.90;;;;;;5085450;28;20172;-78
2024/01/05 05:35:05;;;;;;;0.30;0.20;;;6.30;99.90;;;;;;5088038;28;20393;-79
2024/01/05 05:37:31;;;;;;;0.30;0.20;;;6.20;99.90;;;;;;5088330;28;20168;-80
2024/01/05 05:39:57;;;;;;;0.30;0.20;;;6.10;99.90;;;;;;5087864;28;20699;-79
2024/01/05 05:42:23;;;;;;;0.30;0.20;;;6.10;99.90;;;;;;5087626;28;20537;-77
2024/01/05 05:44:48;;;;;;;0.30;0.20;;;6.10;99.90;;;;;;5087865;28;20456;-78
2024/01/05 05:47:14;;;;;;;0.30;0.20;;;6.10;99.90;;;;;;5089301;28;20174;-78
2024/01/05 05:49:39;;;;;;;0.30;0.20;;;6.00;99.90;;;;;;5088284;28;20200;-79
2024/01/05 05:52:06;;;;;;;0.30;0.20;;;6.10;99.90;;;;;;5089448;28;20172;-78
2024/01/05 05:54:32;;;;;;;9.48;9.07;;;6.00;99.90;;;;;;5088411;28;20196;-80
2024/01/05 05:56:57;;;;;;;0.30;0.20;;;6.00;99.90;;;;;;5088376;28;20529;-78
2024/01/05 05:59:23;;;;;;;0.30;0.20;;;6.00;99.90;;;;;;5088025;28;20456;-79
2024/01/05 06:01:49;;;;;;;0.30;0.20;;;6.00;99.90;;;;;;5089327;28;20675;-79
2024/01/05 06:04:15;;;;;;;0.30;0.20;;;6.00;99.90;;;;;;5088162;28;20192;-78
2024/01/05 06:06:41;;;;;;;0.30;0.20;;;6.00;99.90;;;;;;5088008;28;20236;-78
2024/01/05 06:09:07;;;;;;;0.30;0.20;;;6.00;99.90;;;;;;5088068;28;20525;-78
2024/01/05 06:11:33;;;;;;;0.30;0.20;;;6.00;99.90;;;;;;5087966;28;20612;-78
2024/01/05 06:13:59;;;;;;;0.30;0.20;;;6.00;99.90;;;;;;5089310;28;20278;-78
2024/01/05 06:16:25;;;;;;;0.30;0.20;;;6.00;99.90;;;;;;5089641;28;20582;-77
2024/01/05 06:18:51;;;;;;;0.30;0.20;;;6.00;99.90;;;;;;5088403;28;20472;-78
2024/01/05 06:21:17;;;;;;;0.30;0.20;;;6.00;99.90;;;;;;5088381;28;20180;-78
2024/01/05 06:23:43;;;;;;;0.30;0.20;;;6.00;99.90;;;;;;5087841;28;20211;-78
2024/01/05 06:26:08;;;;;;;0.30;0.20;;;6.00;99.90;;;;;;5088957;28;20217;-78
2024/01/05 06:28:34;;;;;;;2.70;2.60;;;6.00;99.90;;;;;;5089283;28;20200;-78
2024/01/05 06:31:00;;;;;;;0.30;0.20;;;6.10;99.90;;;;;;5089396;28;20176;-78
2024/01/05 06:33:25;;;;;;;0.30;0.20;;;6.10;99.90;;;;;;5089310;28;20269;-78
2024/01/05 06:35:51;;;;;;;0.30;0.20;;;6.20;99.90;;;;;;5089279;28;20177;-78
2024/01/05 06:38:17;;;;;;;0.30;0.20;;;6.20;99.90;;;;;;5089226;28;20249;-78
2024/01/05 06:40:42;;;;;;;1.77;1.77;;;6.20;99.90;;;;;;5089019;28;20216;-78
2024/01/05 06:43:08;;;;;;;0.30;0.20;;;6.20;99.90;;;;;;5088867;28;20192;-78
2024/01/05 06:45:34;;;;;;;0.30;0.20;;;6.20;99.90;;;;;;5089290;28;20876;-78
2024/01/05 06:48:00;;;;;;;0.30;0.20;;;6.20;99.90;;;;;;5088089;28;20208;-77
2024/01/05 06:50:26;;;;;;;0.30;0.20;;;6.10;99.90;;;;;;5087954;28;20538;-77
2024/01/05 06:52:52;;;;;;;0.30;0.20;;;6.00;99.90;;;;;;5088673;28;20204;-78
2024/01/05 06:55:19;;;;;;;0.30;0.20;;;6.00;99.90;;;;;;5089319;28;20435;-78
2024/01/05 06:57:46;;;;;;;0.30;0.20;;;5.90;99.90;;;;;;5088606;28;20721;-78
2024/01/05 07:00:12;;;;;;;0.30;0.20;;;5.90;99.90;;;;;;5087707;28;20208;-78
2024/01/05 07:02:38;;;;;;;0.30;0.20;;;5.90;99.90;;;;;;5086862;28;20531;-77
2024/01/05 07:05:07;;;;;;;0.30;0.30;;;5.80;99.90;;;;;;5090771;28;20723;-77
2024/01/05 07:07:32;;;;;;;0.30;0.20;;;5.70;99.90;;;;;;5090548;28;20215;-77
2024/01/05 07:09:58;;;;;;;0.30;0.20;;;5.70;99.90;;;;;;5090526;28;20208;-77
2024/01/05 07:12:24;;;;;;;0.30;0.20;;;5.70;99.90;;;;;;5089390;28;20173;-77
2024/01/05 07:14:50;;;;;;;0.30;0.20;;;5.70;99.90;;;;;;5088002;28;20177;-77
2024/01/05 07:17:16;;;;;;;0.30;0.30;;;5.70;99.90;;;;;;5091091;28;20195;-77
2024/01/05 07:19:41;;;;;;;0.30;0.20;;;5.70;99.90;;;;;;5088618;28;20685;-78
2024/01/05 07:22:07;;;;;;;0.30;0.20;;;5.80;99.90;;;;;;5087804;28;20533;-77
2024/01/05 07:24:36;;;;;;;0.30;0.20;;;5.80;99.90;;;;;;5089091;28;20588;-77
2024/01/05 07:27:02;;;;;;;0.30;0.20;;;5.80;99.90;;;;;;5090030;28;20389;-78
2024/01/05 07:29:27;;;;;;;0.30;0.20;;;5.80;99.90;;;;;;5088006;28;20197;-77
2024/01/05 07:31:53;;;;;;;0.30;0.20;;;5.80;99.90;;;;;;5089004;28;20184;-77
2024/01/05 07:34:19;;;;;;;0.30;0.20;;;5.80;99.90;;;;;;5088799;28;20230;-78
2024/01/05 07:36:44;;;;;;;0.30;0.30;;;5.90;99.90;;;;;;5090427;28;20173;-77
2024/01/05 07:39:11;;;;;;;0.40;0.30;;;6.10;99.90;;;;;;5088718;28;20219;-77
2024/01/05 07:41:38;;;;;;;0.45;0.45;;;6.60;99.90;;;;;;5089327;28;20175;-78
2024/01/05 07:44:04;;;;;;;0.30;0.30;;;6.90;99.90;;;;;;5089326;28;20220;-77
2024/01/05 07:46:30;;;;;;;0.30;0.30;;;7.30;99.90;;;;;;5088995;28;20695;-78
2024/01/05 07:48:56;;;;;;;0.38;0.30;;;7.70;99.90;;;;;;5089007;28;20458;-77
2024/01/05 07:51:22;;;;;;;0.60;0.60;;;8.30;99.90;;;;;;5088193;28;20589;-77
2024/01/05 07:53:48;;;;;;;1.15;1.15;;;8.90;99.90;;;;;;5086229;28;20453;-77
2024/01/05 07:56:15;;;;;;;0.32;0.32;;;9.50;99.90;;;;;;5084832;28;20180;-78
2024/01/05 07:58:40;;;;;;;0.30;0.20;;;9.90;99.90;;;;;;5086103;28;20233;-78
2024/01/05 08:01:06;;;;;;;1.27;1.27;;;10.40;99.90;;;;;;5085654;28;20212;-78
2024/01/05 08:03:32;;;;;;;0.30;0.20;;;10.70;99.90;;;;;;5087209;28;20573;-78
2024/01/05 08:05:57;;;;;;;4.93;4.73;;;11.10;99.90;;;;;;5085982;28;20614;-78
2024/01/05 08:08:23;;;;;;;20.40;19.60;;;11.40;99.90;;;;;;5089456;28;20688;-78
2024/01/05 08:10:49;;;;;;;0.30;0.20;;;11.60;99.90;;;;;;5089417;28;20216;-78
2024/01/05 08:13:14;;;;;;;1.03;1.03;;;11.90;99.90;;;;;;5089074;28;20598;-78
2024/01/05 08:15:40;;;;;;;0.40;0.30;;;12.20;99.90;;;;;;5089123;28;20172;-78
2024/01/05 08:18:06;;;;;;;0.60;0.60;;;12.70;99.90;;;;;;5089428;28;20575;-78
2024/01/05 08:20:32;;;;;;;0.67;0.67;;;13.10;99.90;;;;;;5091173;28;20212;-79
2024/01/05 08:22:57;;;;;;;0.40;0.30;;;13.60;99.90;;;;;;5089279;28;20802;-79
2024/01/05 08:25:23;;;;;;;1.03;1.03;;;14.10;99.90;;;;;;5090537;28;20169;-78
2024/01/05 08:27:49;;;;;;;1.07;1.07;;;14.50;99.90;;;;;;5089734;28;20196;-79
2024/01/05 08:30:14;;;;;;;1.70;1.70;;;14.60;99.90;;;;;;5075830;28;20283;-79
2024/01/05 08:32:41;;;;;;;4.43;2.00;;;14.50;99.90;;;;;;5082031;28;20268;-79
2024/01/05 08:35:08;;;;;;;4.83;4.53;;;14.60;99.90;;;;;;5087655;28;20169;-79
2024/01/05 08:37:34;;;;;;;0.43;0.43;;;14.70;99.90;;;;;;5068214;28;20836;-79
2024/01/05 08:40:00;;;;;;;0.40;0.30;;;15.00;99.90;;;;;;5087132;28;20456;-79
2024/01/05 08:42:26;;;;;;;0.40;0.30;;;15.20;99.90;;;;;;5075840;28;20923;-79
2024/01/05 08:44:52;;;;;;;6.13;2.37;;;15.30;99.90;;;;;;5084312;28;20409;-79
2024/01/05 08:47:18;;;;;;;1.47;1.37;;;15.40;99.90;;;;;;5086039;28;20433;-79
2024/01/05 08:49:44;;;;;;;1.77;1.70;;;15.50;99.90;;;;;;5086412;28;20207;-79
2024/01/05 08:52:10;;;;;;;0.43;0.43;;;15.80;99.90;;;;;;5086739;28;20535;-79
2024/01/05 08:54:39;;;;;;;0.53;0.53;;;16.10;99.90;;;;;;5085071;28;20204;-79
2024/01/05 08:57:06;;;;;;;0.40;0.30;;;16.40;99.90;;;;;;5066860;28;20165;-78
2024/01/05 08:59:33;;;;;;;3.67;3.47;;;16.60;99.90;;;;;;5076976;28;20911;-79
2024/01/05 09:01:59;;;;;;;0.40;0.40;;;16.70;99.90;;;;;;5086383;28;20413;-79
2024/01/05 09:04:25;;;;;;;0.30;0.30;;;16.50;99.90;;;;;;5085771;28;20810;-79
2024/01/05 09:06:51;;;;;;;0.40;0.40;;;16.40;99.90;;;;;;5102443;28;20650;-78
2024/01/05 09:09:16;;;;;;;0.40;0.27;;;16.00;99.90;;;;;;5101054;28;20204;-79
2024/01/05 09:11:42;;;;;;;1.97;1.97;;;15.80;99.90;;;;;;5101396;28;20412;-79
2024/01/05 09:14:08;;;;;;;3.60;1.80;;;15.70;99.90;;;;;;5100674;28;20636;-79
2024/01/05 09:16:36;;;;;;;1.20;1.10;;;15.60;99.90;;;;;;5090137;28;20227;-78
2024/01/05 09:19:02;;;;;;;0.40;0.20;;;15.70;99.90;;;;;;5064056;28;20417;-78
2024/01/05 09:21:28;;;;;;;0.67;0.67;;;15.80;99.90;;;;;;5064147;28;20949;-78
2024/01/05 09:23:53;;;;;;;57.03;3.80;;;16.10;99.90;;;;;;5063056;28;20276;-78
2024/01/05 09:26:20;;;;;;;2.10;2.00;;;16.40;99.90;;;;;;5066675;28;20513;-79
2024/01/05 09:28:45;;;;;;;3.27;3.17;;;16.70;99.90;;;;;;5065413;28;20210;-78
2024/01/05 09:31:11;;;;;;;1.37;1.37;;;17.10;99.90;;;;;;5070404;28;20486;-79
2024/01/05 09:33:37;;;;;;;0.53;0.50;;;17.70;99.90;;;;;;5067691;28;20198;-79
2024/01/05 09:36:03;;;;;;;1.90;1.80;;;18.30;99.90;;;;;;5066055;28;20187;-79
2024/01/05 09:38:28;;;;;;;0.40;0.37;;;18.80;99.90;;;;;;5067453;28;20200;-79
2024/01/05 09:40:55;;;;;;;1.53;1.40;;;19.20;99.90;;;;;;5069346;28;20489;-79
2024/01/05 09:43:27;;;;;;;2.30;2.20;;;19.40;99.90;;;;;;5068654;28;20417;-79
2024/01/05 09:45:55;;;;;;;0.60;0.57;;;19.70;99.90;;;;;;5086146;28;20489;-80
2024/01/05 09:48:22;;;;;;;0.40;0.30;;;20.00;99.90;;;;;;5088086;28;20792;-79
2024/01/05 09:50:52;;;;;;;0.53;0.53;;;20.40;99.50;;;;;;5087557;28;20977;-79
2024/01/05 09:53:18;;;;;;;0.73;0.73;;;20.60;99.40;;;;;;5086180;28;20429;-79
2024/01/05 09:55:47;;;;;;;1.07;1.07;;;20.60;98.80;;;;;;5088011;28;20417;-79
2024/01/05 09:58:14;;;;;;;0.53;0.50;;;20.70;98.30;;;;;;5086145;28;20499;-79
2024/01/05 10:00:44;;;;;;;0.43;0.43;;;20.80;97.70;;;;;;5083102;28;20481;-79
2024/01/05 10:03:19;;;;;;;1.80;1.70;;;20.80;97.60;;;;;;5082921;28;20436;-79
2024/01/05 10:05:46;;;;;;;2.10;1.77;;;20.70;97.10;;;;;;5083470;28;20452;-79
2024/01/05 10:08:13;;;;;;;1.50;1.43;;;20.50;97.00;;;;;;5080879;28;20818;-79
2024/01/05 10:10:49;;;;;;;0.40;0.20;;;20.10;96.60;;;;;;5082173;28;20822;-79
2024/01/05 10:13:16;;;;;;;0.40;0.23;;;19.60;96.70;;;;;;5084571;28;20508;-79
2024/01/05 10:16:02;;;;;;;0.70;0.70;;;18.80;97.20;;;;;;5086060;28;20852;-78
2024/01/05 10:18:29;;;;;;;1.37;1.37;;;18.20;97.80;;;;;;5084194;28;20969;-79
2024/01/05 10:20:57;;;;;;;0.67;0.67;;;17.60;98.60;;;;;;5085434;28;21002;-78
2024/01/05 10:23:23;;;;;;;0.40;0.33;;;17.10;98.90;;;;;;5087428;28;20432;-78
2024/01/05 10:25:51;;;;;;;0.40;0.30;;;16.70;99.70;;;;;;5087968;28;20452;-78
2024/01/05 10:28:37;;;;;;;4.83;1.63;;;16.40;99.90;;;;;;5087284;28;20462;-78
2024/01/05 10:31:14;;;;;;;1.43;1.40;;;16.00;99.90;;;;;;5086714;28;20466;-78
2024/01/05 10:33:52;;;;;;;0.30;0.20;;;15.60;99.90;;;;;;5086881;28;20831;-78
2024/01/05 10:36:21;;;;;;;0.50;0.50;;;15.50;99.90;;;;;;5086750;28;20922;-78
2024/01/05 10:38:48;;;;;;;1.93;1.37;;;15.30;99.90;;;;;;5089536;28;20952;-78
2024/01/05 10:41:15;;;;;;;2.00;1.90;;;15.00;99.90;;;;;;5088607;28;20468;-78
2024/01/05 10:43:41;;;;;;;0.30;0.30;;;14.80;99.90;;;;;;5090193;28;20432;-78
2024/01/05 10:46:10;;;;;;;0.97;0.87;;;14.60;99.90;;;;;;5088714;28;20451;-78
2024/01/05 10:48:36;;;;;;;0.40;0.40;;;14.50;99.90;;;;;;5090817;28;20983;-78
2024/01/05 10:51:02;;;;;;;0.40;0.40;;;14.30;99.90;;;;;;5090250;28;20777;-78
2024/01/05 10:53:29;;;;;;;0.40;0.40;;;14.10;99.90;;;;;;5087144;28;20444;-78
2024/01/05 10:55:58;;;;;;;1.07;1.07;;;13.90;99.90;;;;;;5084682;28;20796;-78
2024/01/05 10:58:24;;;;;;;0.43;0.40;;;13.80;99.90;;;;;;5082162;28;20483;-78
2024/01/05 11:00:52;;;;;;;0.40;0.30;;;13.60;99.90;;;;;;5067905;28;20570;-78
2024/01/05 11:03:24;;;;;;;0.40;0.30;;;13.50;99.90;;;;;;5085302;28;20532;-78
2024/01/05 11:05:50;;;;;;;0.40;0.30;;;13.50;99.90;;;;;;5087834;28;20523;-78
2024/01/05 11:09:09;;;;;;;5.00;4.63;;;13.40;99.90;;;;;;5085803;28;20440;-78
2024/01/05 11:12:12;;;;;;;1.30;1.30;;;13.40;99.90;;;;;;5052507;28;20472;-78
2024/01/05 11:15:20;;;;;;;2.70;2.60;;;13.40;99.90;;;;;;5067040;28;20494;-78
2024/01/05 11:17:59;;;;;;;0.40;0.20;;;13.40;99.90;;;;;;5058958;28;20459;-78
2024/01/05 11:20:27;;;;;;;0.40;0.33;;;13.30;99.90;;;;;;5087348;28;20475;-78
2024/01/05 11:22:54;;;;;;;5.27;5.07;;;13.30;99.90;;;;;;5082822;28;20441;-78
2024/01/05 11:25:20;;;;;;;0.30;0.20;;;13.20;99.90;;;;;;5086909;28;20485;-78
2024/01/05 11:27:46;;;;;;;0.97;0.97;;;13.10;99.90;;;;;;5078287;28;20445;-78
2024/01/05 11:30:13;;;;;;;0.60;0.60;;;13.00;99.90;;;;;;5091429;28;20454;-78
2024/01/05 11:32:46;;;;;;;0.50;0.50;;;12.90;99.90;;;;;;5090064;27;20431;-78
2024/01/05 11:35:19;;;;;;;0.30;0.20;;;12.80;99.90;;;;;;5100150;28;20441;-78
2024/01/05 11:37:48;;;;;;;0.30;0.20;;;12.70;99.90;;;;;;5084867;28;20436;-78
2024/01/05 11:40:31;;;;;;;1.57;1.47;;;12.60;99.90;;;;;;5075705;28;20552;-78
2024/01/05 11:42:57;;;;;;;0.30;0.30;;;12.50;99.90;;;;;;5085756;28;20453;-78
2024/01/05 11:45:41;;;;;;;0.33;0.20;;;12.50;99.90;;;;;;5084598;28;21034;-78
2024/01/05 11:48:08;;;;;;;2.20;1.07;;;12.50;99.90;;;;;;5069513;28;20817;-78
2024/01/05 11:50:35;;;;;;;0.30;0.20;;;12.40;99.90;;;;;;5065414;28;20417;-78
2024/01/05 11:53:17;;;;;;;0.30;0.20;;;12.40;99.90;;;;;;5062710;28;20428;-78
2024/01/05 11:55:47;;;;;;;0.30;0.30;;;12.40;99.90;;;;;;5064050;28;20428;-78
2024/01/05 11:58:35;;;;;;;0.40;0.20;;;12.30;99.90;;;;;;5063686;28;20429;-78
2024/01/05 12:01:03;;;;;;;0.30;0.20;;;12.30;99.90;;;;;;5063191;28;20653;-78
2024/01/05 12:03:30;;;;;;;0.30;0.27;;;12.30;99.90;;;;;;5067634;28;20416;-78
2024/01/05 12:06:03;;;;;;;1.90;1.80;;;12.30;99.90;;;;;;5076416;28;21092;-78
2024/01/05 12:08:29;;;;;;;0.60;0.60;;;12.30;99.90;;;;;;5072201;28;20433;-78
2024/01/05 12:11:03;;;;;;;0.40;0.20;;;12.20;99.90;;;;;;5065353;28;20802;-78
2024/01/05 12:13:32;;;;;;;0.30;0.20;;;12.20;99.90;;;;;;5063205;28;20831;-78
2024/01/05 12:16:02;;;;;;;0.87;0.87;;;12.30;99.90;;;;;;5085902;28;21001;-79
2024/01/05 12:18:30;;;;;;;1.57;1.57;;;12.30;99.90;;;;;;5085060;28;20441;-78
2024/01/05 12:20:57;;;;;;;0.40;0.30;;;12.30;99.90;;;;;;5084597;28;20495;-78
2024/01/05 12:23:24;;;;;;;0.30;0.20;;;12.30;99.90;;;;;;5081752;28;20660;-78
2024/01/05 12:26:03;;;;;;;1.17;1.17;;;12.40;99.90;;;;;;5083796;28;20417;-78
2024/01/05 12:28:31;;;;;;;0.30;0.30;;;12.50;99.90;;;;;;5085531;28;21044;-78
2024/01/05 12:31:00;;;;;;;0.30;0.20;;;12.50;99.90;;;;;;5087798;28;20445;-78
2024/01/05 12:33:27;;;;;;;0.30;0.20;;;12.50;99.90;;;;;;5088400;28;20437;-78
2024/01/05 12:35:54;;;;;;;0.30;0.20;;;12.60;99.90;;;;;;5088822;28;20498;-78
2024/01/05 12:38:29;;;;;;;0.30;0.30;;;12.60;99.90;;;;;;5078117;28;20449;-78
2024/01/05 12:41:06;;;;;;;0.30;0.20;;;12.70;99.90;;;;;;5087828;28;20522;-78
2024/01/05 12:43:32;;;;;;;0.30;0.20;;;12.60;99.90;;;;;;5087150;28;20448;-78
2024/01/05 12:46:03;;;;;;;7.80;3.77;;;12.60;99.90;;;;;;5087363;28;21071;-78
2024/01/05 12:48:31;;;;;;;0.80;0.80;;;12.60;99.90;;;;;;5081837;28;20689;-78
2024/01/05 12:51:04;;;;;;;0.30;0.30;;;12.60;99.90;;;;;;5075320;28;20435;-78
2024/01/05 12:53:30;;;;;;;0.30;0.20;;;12.60;99.90;;;;;;5086202;28;20646;-78